sensor_id;sensor_type;location;lat;lon;timestamp;P1;durP1;ratioP1;P2;durP2;ratioP2
18711;SDS011;9485;49.386;8.674;2023-07-29T00:00:42;0.68;;;0.68;;
18711;SDS011;9485;49.386;8.674;2023-07-29T00:06:03;0.80;;;0.80;;
18711;SDS011;9485;49.386;8.674;2023-07-29T00:11:25;0.85;;;0.82;;
18711;SDS011;9485;49.386;8.674;2023-07-29T00:16:47;0.70;;;0.70;;
18711;SDS011;9485;49.386;8.674;2023-07-29T00:22:08;0.65;;;0.65;;
18711;SDS011;9485;49.386;8.674;2023-07-29T00:27:29;1.77;;;0.90;;
18711;SDS011;9485;49.386;8.674;2023-07-29T00:32:51;0.90;;;0.90;;
18711;SDS011;9485;49.386;8.674;2023-07-29T00:38:12;0.93;;;0.82;;
18711;SDS011;9485;49.386;8.674;2023-07-29T00:43:33;0.77;;;0.77;;
18711;SDS011;9485;49.386;8.674;2023-07-29T00:48:56;1.25;;;0.68;;
18711;SDS011;9485;49.386;8.674;2023-07-29T00:54:17;0.80;;;0.77;;
18711;SDS011;9485;49.386;8.674;2023-07-29T00:59:37;0.70;;;0.70;;
18711;SDS011;9485;49.386;8.674;2023-07-29T01:05:05;0.65;;;0.65;;
18711;SDS011;9485;49.386;8.674;2023-07-29T01:10:30;0.80;;;0.60;;
18711;SDS011;9485;49.386;8.674;2023-07-29T01:16:01;1.83;;;0.68;;
18711;SDS011;9485;49.386;8.674;2023-07-29T01:21:36;1.73;;;0.88;;
18711;SDS011;9485;49.386;8.674;2023-07-29T01:27:01;0.47;;;0.47;;
18711;SDS011;9485;49.386;8.674;2023-07-29T01:32:25;0.80;;;0.80;;
18711;SDS011;9485;49.386;8.674;2023-07-29T01:37:55;1.30;;;0.70;;
18711;SDS011;9485;49.386;8.674;2023-07-29T01:43:26;0.77;;;0.77;;
18711;SDS011;9485;49.386;8.674;2023-07-29T01:48:47;0.85;;;0.85;;
18711;SDS011;9485;49.386;8.674;2023-07-29T01:54:08;1.20;;;0.80;;
18711;SDS011;9485;49.386;8.674;2023-07-29T01:59:31;0.90;;;0.90;;
18711;SDS011;9485;49.386;8.674;2023-07-29T02:04:52;1.98;;;0.93;;
18711;SDS011;9485;49.386;8.674;2023-07-29T02:10:15;1.15;;;0.90;;
18711;SDS011;9485;49.386;8.674;2023-07-29T02:15:37;2.03;;;1.10;;
18711;SDS011;9485;49.386;8.674;2023-07-29T02:20:58;0.70;;;0.70;;
18711;SDS011;9485;49.386;8.674;2023-07-29T02:26:22;0.75;;;0.75;;
18711;SDS011;9485;49.386;8.674;2023-07-29T02:31:43;1.38;;;0.90;;
18711;SDS011;9485;49.386;8.674;2023-07-29T02:37:04;1.25;;;1.02;;
18711;SDS011;9485;49.386;8.674;2023-07-29T02:42:24;0.98;;;0.98;;
18711;SDS011;9485;49.386;8.674;2023-07-29T02:47:46;1.30;;;1.20;;
18711;SDS011;9485;49.386;8.674;2023-07-29T02:53:08;0.88;;;0.88;;
18711;SDS011;9485;49.386;8.674;2023-07-29T02:58:28;1.40;;;1.13;;
18711;SDS011;9485;49.386;8.674;2023-07-29T03:03:50;2.55;;;1.00;;
18711;SDS011;9485;49.386;8.674;2023-07-29T03:09:11;1.15;;;1.00;;
18711;SDS011;9485;49.386;8.674;2023-07-29T03:14:33;1.98;;;0.95;;
18711;SDS011;9485;49.386;8.674;2023-07-29T03:19:55;0.90;;;0.90;;
18711;SDS011;9485;49.386;8.674;2023-07-29T03:25:16;0.80;;;0.80;;
18711;SDS011;9485;49.386;8.674;2023-07-29T03:30:36;1.10;;;0.80;;
18711;SDS011;9485;49.386;8.674;2023-07-29T03:35:58;0.57;;;0.57;;
18711;SDS011;9485;49.386;8.674;2023-07-29T03:41:20;1.23;;;0.80;;
18711;SDS011;9485;49.386;8.674;2023-07-29T03:46:41;1.48;;;1.00;;
18711;SDS011;9485;49.386;8.674;2023-07-29T03:52:05;0.80;;;0.80;;
18711;SDS011;9485;49.386;8.674;2023-07-29T03:57:26;1.17;;;0.90;;
18711;SDS011;9485;49.386;8.674;2023-07-29T04:02:48;1.98;;;0.98;;
18711;SDS011;9485;49.386;8.674;2023-07-29T04:08:10;1.88;;;0.90;;
18711;SDS011;9485;49.386;8.674;2023-07-29T04:13:32;1.30;;;0.88;;
18711;SDS011;9485;49.386;8.674;2023-07-29T04:18:52;2.33;;;1.00;;
18711;SDS011;9485;49.386;8.674;2023-07-29T04:24:15;2.80;;;0.93;;
18711;SDS011;9485;49.386;8.674;2023-07-29T04:29:36;0.95;;;0.85;;
18711;SDS011;9485;49.386;8.674;2023-07-29T04:34:57;0.88;;;0.82;;
18711;SDS011;9485;49.386;8.674;2023-07-29T04:40:19;1.63;;;1.13;;
18711;SDS011;9485;49.386;8.674;2023-07-29T04:45:42;1.17;;;1.08;;
18711;SDS011;9485;49.386;8.674;2023-07-29T04:51:05;7.07;;;1.30;;
18711;SDS011;9485;49.386;8.674;2023-07-29T04:56:27;2.03;;;1.23;;
18711;SDS011;9485;49.386;8.674;2023-07-29T05:01:47;1.60;;;1.13;;
18711;SDS011;9485;49.386;8.674;2023-07-29T05:07:09;1.92;;;1.17;;
18711;SDS011;9485;49.386;8.674;2023-07-29T05:12:31;1.85;;;1.30;;
18711;SDS011;9485;49.386;8.674;2023-07-29T05:17:52;3.03;;;1.40;;
18711;SDS011;9485;49.386;8.674;2023-07-29T05:23:12;3.63;;;1.48;;
18711;SDS011;9485;49.386;8.674;2023-07-29T05:28:34;2.22;;;1.40;;
18711;SDS011;9485;49.386;8.674;2023-07-29T05:33:55;3.38;;;1.23;;
18711;SDS011;9485;49.386;8.674;2023-07-29T05:39:18;4.18;;;1.52;;
18711;SDS011;9485;49.386;8.674;2023-07-29T05:44:40;12.85;;;1.92;;
18711;SDS011;9485;49.386;8.674;2023-07-29T05:50:01;3.33;;;1.40;;
18711;SDS011;9485;49.386;8.674;2023-07-29T05:55:23;2.40;;;1.08;;
18711;SDS011;9485;49.386;8.674;2023-07-29T06:00:45;0.73;;;0.73;;
18711;SDS011;9485;49.386;8.674;2023-07-29T06:06:06;0.77;;;0.73;;
18711;SDS011;9485;49.386;8.674;2023-07-29T06:11:28;1.23;;;0.90;;
18711;SDS011;9485;49.386;8.674;2023-07-29T06:16:50;1.83;;;1.00;;
18711;SDS011;9485;49.386;8.674;2023-07-29T06:22:12;1.10;;;1.00;;
18711;SDS011;9485;49.386;8.674;2023-07-29T06:27:33;1.33;;;1.00;;
18711;SDS011;9485;49.386;8.674;2023-07-29T06:32:54;2.13;;;1.15;;
18711;SDS011;9485;49.386;8.674;2023-07-29T06:38:15;1.35;;;1.20;;
18711;SDS011;9485;49.386;8.674;2023-07-29T06:43:40;3.83;;;1.60;;
18711;SDS011;9485;49.386;8.674;2023-07-29T06:49:02;1.40;;;1.30;;
18711;SDS011;9485;49.386;8.674;2023-07-29T06:54:23;3.35;;;1.50;;
18711;SDS011;9485;49.386;8.674;2023-07-29T06:59:44;4.25;;;1.75;;
18711;SDS011;9485;49.386;8.674;2023-07-29T07:05:08;2.40;;;1.42;;
18711;SDS011;9485;49.386;8.674;2023-07-29T07:10:29;1.58;;;1.45;;
18711;SDS011;9485;49.386;8.674;2023-07-29T07:15:49;3.03;;;1.50;;
18711;SDS011;9485;49.386;8.674;2023-07-29T07:21:12;1.85;;;1.67;;
18711;SDS011;9485;49.386;8.674;2023-07-29T07:26:32;2.30;;;1.60;;
18711;SDS011;9485;49.386;8.674;2023-07-29T07:31:53;2.58;;;1.50;;
18711;SDS011;9485;49.386;8.674;2023-07-29T07:37:16;2.63;;;1.90;;
18711;SDS011;9485;49.386;8.674;2023-07-29T07:42:36;2.25;;;1.75;;
18711;SDS011;9485;49.386;8.674;2023-07-29T07:47:57;2.33;;;1.52;;
18711;SDS011;9485;49.386;8.674;2023-07-29T07:53:19;2.08;;;1.70;;
18711;SDS011;9485;49.386;8.674;2023-07-29T07:58:39;2.97;;;1.50;;
18711;SDS011;9485;49.386;8.674;2023-07-29T08:04:00;1.92;;;1.55;;
18711;SDS011;9485;49.386;8.674;2023-07-29T08:09:22;3.35;;;1.65;;
18711;SDS011;9485;49.386;8.674;2023-07-29T08:14:43;4.40;;;1.30;;
18711;SDS011;9485;49.386;8.674;2023-07-29T08:20:03;1.60;;;1.50;;
18711;SDS011;9485;49.386;8.674;2023-07-29T08:25:27;2.55;;;1.30;;
18711;SDS011;9485;49.386;8.674;2023-07-29T08:30:49;2.10;;;1.90;;
18711;SDS011;9485;49.386;8.674;2023-07-29T08:36:11;2.50;;;1.35;;
18711;SDS011;9485;49.386;8.674;2023-07-29T08:41:36;2.55;;;1.52;;
18711;SDS011;9485;49.386;8.674;2023-07-29T08:47:05;1.65;;;1.30;;
18711;SDS011;9485;49.386;8.674;2023-07-29T08:52:27;1.65;;;1.25;;
18711;SDS011;9485;49.386;8.674;2023-07-29T08:57:51;1.83;;;1.10;;
18711;SDS011;9485;49.386;8.674;2023-07-29T09:03:14;1.35;;;1.17;;
18711;SDS011;9485;49.386;8.674;2023-07-29T09:08:34;1.45;;;1.30;;
18711;SDS011;9485;49.386;8.674;2023-07-29T09:13:57;5.63;;;1.60;;
18711;SDS011;9485;49.386;8.674;2023-07-29T09:19:18;1.60;;;1.30;;
18711;SDS011;9485;49.386;8.674;2023-07-29T09:24:39;1.80;;;1.50;;
18711;SDS011;9485;49.386;8.674;2023-07-29T09:30:01;1.50;;;1.40;;
18711;SDS011;9485;49.386;8.674;2023-07-29T09:35:24;2.30;;;1.38;;
18711;SDS011;9485;49.386;8.674;2023-07-29T09:40:48;1.67;;;1.50;;
18711;SDS011;9485;49.386;8.674;2023-07-29T09:46:09;1.60;;;1.50;;
18711;SDS011;9485;49.386;8.674;2023-07-29T09:51:32;1.60;;;1.50;;
18711;SDS011;9485;49.386;8.674;2023-07-29T09:57:01;1.30;;;1.20;;
18711;SDS011;9485;49.386;8.674;2023-07-29T10:02:24;1.30;;;1.20;;
18711;SDS011;9485;49.386;8.674;2023-07-29T10:07:47;1.17;;;1.08;;
18711;SDS011;9485;49.386;8.674;2023-07-29T10:13:11;3.03;;;1.10;;
18711;SDS011;9485;49.386;8.674;2023-07-29T10:18:34;0.98;;;0.98;;
18711;SDS011;9485;49.386;8.674;2023-07-29T10:23:54;1.05;;;1.00;;
18711;SDS011;9485;49.386;8.674;2023-07-29T10:29:21;1.30;;;1.20;;
18711;SDS011;9485;49.386;8.674;2023-07-29T10:34:46;1.30;;;1.20;;
18711;SDS011;9485;49.386;8.674;2023-07-29T10:40:08;1.60;;;1.50;;
18711;SDS011;9485;49.386;8.674;2023-07-29T10:45:36;1.20;;;1.13;;
18711;SDS011;9485;49.386;8.674;2023-07-29T10:56:50;1.20;;;1.10;;
18711;SDS011;9485;49.386;8.674;2023-07-29T11:02:15;1.90;;;1.27;;
18711;SDS011;9485;49.386;8.674;2023-07-29T11:07:44;1.55;;;1.42;;
18711;SDS011;9485;49.386;8.674;2023-07-29T11:13:05;1.58;;;1.25;;
18711;SDS011;9485;49.386;8.674;2023-07-29T11:18:29;1.33;;;1.23;;
18711;SDS011;9485;49.386;8.674;2023-07-29T11:23:53;2.30;;;1.20;;
18711;SDS011;9485;49.386;8.674;2023-07-29T11:29:13;1.27;;;1.17;;
18711;SDS011;9485;49.386;8.674;2023-07-29T11:34:36;2.53;;;1.40;;
18711;SDS011;9485;49.386;8.674;2023-07-29T11:40:00;1.75;;;1.00;;
18711;SDS011;9485;49.386;8.674;2023-07-29T11:45:22;2.20;;;1.23;;
18711;SDS011;9485;49.386;8.674;2023-07-29T11:50:43;1.80;;;1.40;;
18711;SDS011;9485;49.386;8.674;2023-07-29T11:56:06;1.20;;;1.10;;
18711;SDS011;9485;49.386;8.674;2023-07-29T12:01:27;1.15;;;1.08;;
18711;SDS011;9485;49.386;8.674;2023-07-29T12:06:48;1.05;;;0.93;;
18711;SDS011;9485;49.386;8.674;2023-07-29T12:12:11;1.10;;;1.00;;
18711;SDS011;9485;49.386;8.674;2023-07-29T12:17:31;1.17;;;0.80;;
18711;SDS011;9485;49.386;8.674;2023-07-29T12:23:00;1.35;;;1.10;;
18711;SDS011;9485;49.386;8.674;2023-07-29T12:28:23;9.02;;;1.70;;
18711;SDS011;9485;49.386;8.674;2023-07-29T12:33:46;0.82;;;0.82;;
18711;SDS011;9485;49.386;8.674;2023-07-29T12:39:15;1.52;;;1.17;;
18711;SDS011;9485;49.386;8.674;2023-07-29T12:44:38;1.05;;;0.95;;
18711;SDS011;9485;49.386;8.674;2023-07-29T12:49:59;1.85;;;1.10;;
18711;SDS011;9485;49.386;8.674;2023-07-29T12:55:20;1.27;;;0.95;;
18711;SDS011;9485;49.386;8.674;2023-07-29T13:00:41;1.42;;;1.10;;
18711;SDS011;9485;49.386;8.674;2023-07-29T13:06:02;1.17;;;1.08;;
18711;SDS011;9485;49.386;8.674;2023-07-29T13:11:23;2.05;;;0.70;;
18711;SDS011;9485;49.386;8.674;2023-07-29T13:16:46;1.30;;;1.10;;
18711;SDS011;9485;49.386;8.674;2023-07-29T13:22:06;0.85;;;0.85;;
18711;SDS011;9485;49.386;8.674;2023-07-29T13:27:27;1.13;;;1.02;;
18711;SDS011;9485;49.386;8.674;2023-07-29T13:32:49;0.90;;;0.80;;
18711;SDS011;9485;49.386;8.674;2023-07-29T13:38:09;0.95;;;0.93;;
18711;SDS011;9485;49.386;8.674;2023-07-29T13:43:30;1.08;;;0.98;;
18711;SDS011;9485;49.386;8.674;2023-07-29T13:48:52;0.75;;;0.75;;
18711;SDS011;9485;49.386;8.674;2023-07-29T13:54:12;1.10;;;1.00;;
18711;SDS011;9485;49.386;8.674;2023-07-29T13:59:33;2.35;;;1.20;;
18711;SDS011;9485;49.386;8.674;2023-07-29T14:04:55;1.35;;;1.00;;
18711;SDS011;9485;49.386;8.674;2023-07-29T14:10:16;1.23;;;1.13;;
18711;SDS011;9485;49.386;8.674;2023-07-29T14:15:36;0.85;;;0.85;;
18711;SDS011;9485;49.386;8.674;2023-07-29T14:20:58;0.98;;;0.88;;
18711;SDS011;9485;49.386;8.674;2023-07-29T14:26:19;0.90;;;0.90;;
18711;SDS011;9485;49.386;8.674;2023-07-29T14:31:40;0.77;;;0.77;;
18711;SDS011;9485;49.386;8.674;2023-07-29T14:37:02;3.05;;;1.30;;
18711;SDS011;9485;49.386;8.674;2023-07-29T14:42:23;1.15;;;1.05;;
18711;SDS011;9485;49.386;8.674;2023-07-29T14:47:44;1.95;;;1.20;;
18711;SDS011;9485;49.386;8.674;2023-07-29T14:53:06;1.13;;;1.02;;
18711;SDS011;9485;49.386;8.674;2023-07-29T14:58:28;1.30;;;1.10;;
18711;SDS011;9485;49.386;8.674;2023-07-29T15:03:49;1.70;;;1.27;;
18711;SDS011;9485;49.386;8.674;2023-07-29T15:09:10;1.73;;;1.30;;
18711;SDS011;9485;49.386;8.674;2023-07-29T15:14:31;1.58;;;1.23;;
18711;SDS011;9485;49.386;8.674;2023-07-29T15:19:51;1.90;;;1.30;;
18711;SDS011;9485;49.386;8.674;2023-07-29T15:25:13;1.95;;;1.40;;
18711;SDS011;9485;49.386;8.674;2023-07-29T15:30:35;1.40;;;1.30;;
18711;SDS011;9485;49.386;8.674;2023-07-29T15:35:57;1.20;;;1.10;;
18711;SDS011;9485;49.386;8.674;2023-07-29T15:41:19;1.20;;;1.10;;
18711;SDS011;9485;49.386;8.674;2023-07-29T15:46:40;1.30;;;1.20;;
18711;SDS011;9485;49.386;8.674;2023-07-29T15:52:00;1.10;;;1.00;;
18711;SDS011;9485;49.386;8.674;2023-07-29T15:57:22;1.33;;;1.13;;
18711;SDS011;9485;49.386;8.674;2023-07-29T16:02:43;1.30;;;1.20;;
18711;SDS011;9485;49.386;8.674;2023-07-29T16:08:03;1.40;;;1.30;;
18711;SDS011;9485;49.386;8.674;2023-07-29T16:13:25;1.25;;;1.13;;
18711;SDS011;9485;49.386;8.674;2023-07-29T16:18:46;1.00;;;1.00;;
18711;SDS011;9485;49.386;8.674;2023-07-29T16:24:06;2.15;;;1.02;;
18711;SDS011;9485;49.386;8.674;2023-07-29T16:29:28;1.63;;;1.52;;
18711;SDS011;9485;49.386;8.674;2023-07-29T16:34:49;1.95;;;1.35;;
18711;SDS011;9485;49.386;8.674;2023-07-29T16:40:10;1.20;;;1.10;;
18711;SDS011;9485;49.386;8.674;2023-07-29T16:45:32;6.13;;;1.60;;
18711;SDS011;9485;49.386;8.674;2023-07-29T16:50:53;1.30;;;1.20;;
18711;SDS011;9485;49.386;8.674;2023-07-29T16:56:13;1.30;;;1.20;;
18711;SDS011;9485;49.386;8.674;2023-07-29T17:01:35;2.22;;;1.33;;
18711;SDS011;9485;49.386;8.674;2023-07-29T17:06:56;1.50;;;1.40;;
18711;SDS011;9485;49.386;8.674;2023-07-29T17:12:16;1.30;;;1.20;;
18711;SDS011;9485;49.386;8.674;2023-07-29T17:17:38;1.50;;;1.40;;
18711;SDS011;9485;49.386;8.674;2023-07-29T17:23:00;1.50;;;1.40;;
18711;SDS011;9485;49.386;8.674;2023-07-29T17:28:20;2.08;;;1.88;;
18711;SDS011;9485;49.386;8.674;2023-07-29T17:33:42;2.03;;;1.73;;
18711;SDS011;9485;49.386;8.674;2023-07-29T17:39:03;2.00;;;1.65;;
18711;SDS011;9485;49.386;8.674;2023-07-29T17:44:25;2.30;;;1.83;;
18711;SDS011;9485;49.386;8.674;2023-07-29T17:49:48;2.08;;;1.80;;
18711;SDS011;9485;49.386;8.674;2023-07-29T17:55:09;3.63;;;2.65;;
18711;SDS011;9485;49.386;8.674;2023-07-29T18:00:31;3.03;;;2.70;;
18711;SDS011;9485;49.386;8.674;2023-07-29T18:05:53;2.50;;;2.30;;
18711;SDS011;9485;49.386;8.674;2023-07-29T18:11:15;2.50;;;2.30;;
18711;SDS011;9485;49.386;8.674;2023-07-29T18:16:36;1.95;;;1.80;;
18711;SDS011;9485;49.386;8.674;2023-07-29T18:22:01;2.88;;;1.80;;
18711;SDS011;9485;49.386;8.674;2023-07-29T18:27:21;2.00;;;1.80;;
18711;SDS011;9485;49.386;8.674;2023-07-29T18:32:44;2.05;;;1.70;;
18711;SDS011;9485;49.386;8.674;2023-07-29T18:38:06;1.75;;;1.63;;
18711;SDS011;9485;49.386;8.674;2023-07-29T18:43:26;2.20;;;2.00;;
18711;SDS011;9485;49.386;8.674;2023-07-29T18:48:47;2.53;;;2.10;;
18711;SDS011;9485;49.386;8.674;2023-07-29T18:54:08;2.38;;;1.85;;
18711;SDS011;9485;49.386;8.674;2023-07-29T18:59:29;2.35;;;2.03;;
18711;SDS011;9485;49.386;8.674;2023-07-29T19:04:50;2.45;;;2.05;;
18711;SDS011;9485;49.386;8.674;2023-07-29T19:10:11;3.08;;;2.20;;
18711;SDS011;9485;49.386;8.674;2023-07-29T19:15:32;2.30;;;2.10;;
18711;SDS011;9485;49.386;8.674;2023-07-29T19:20:52;1.95;;;1.85;;
18711;SDS011;9485;49.386;8.674;2023-07-29T19:26:15;3.22;;;2.15;;
18711;SDS011;9485;49.386;8.674;2023-07-29T19:31:39;4.32;;;2.47;;
18711;SDS011;9485;49.386;8.674;2023-07-29T19:37:00;2.53;;;1.98;;
18711;SDS011;9485;49.386;8.674;2023-07-29T19:42:22;2.40;;;1.70;;
18711;SDS011;9485;49.386;8.674;2023-07-29T19:47:42;3.33;;;1.95;;
18711;SDS011;9485;49.386;8.674;2023-07-29T19:53:03;1.92;;;1.75;;
18711;SDS011;9485;49.386;8.674;2023-07-29T19:58:26;2.03;;;1.83;;
18711;SDS011;9485;49.386;8.674;2023-07-29T20:03:47;2.38;;;2.15;;
18711;SDS011;9485;49.386;8.674;2023-07-29T20:09:08;2.55;;;2.35;;
18711;SDS011;9485;49.386;8.674;2023-07-29T20:14:30;3.40;;;2.25;;
18711;SDS011;9485;49.386;8.674;2023-07-29T20:19:51;2.58;;;2.00;;
18711;SDS011;9485;49.386;8.674;2023-07-29T20:25:13;3.58;;;1.90;;
18711;SDS011;9485;49.386;8.674;2023-07-29T20:30:36;4.00;;;1.95;;
18711;SDS011;9485;49.386;8.674;2023-07-29T20:35:58;2.65;;;2.20;;
18711;SDS011;9485;49.386;8.674;2023-07-29T20:41:21;2.55;;;2.13;;
18711;SDS011;9485;49.386;8.674;2023-07-29T20:46:44;3.92;;;2.20;;
18711;SDS011;9485;49.386;8.674;2023-07-29T20:52:07;3.95;;;2.10;;
18711;SDS011;9485;49.386;8.674;2023-07-29T20:57:28;3.15;;;2.13;;
18711;SDS011;9485;49.386;8.674;2023-07-29T21:02:51;3.15;;;2.25;;
18711;SDS011;9485;49.386;8.674;2023-07-29T21:08:12;2.00;;;1.80;;
18711;SDS011;9485;49.386;8.674;2023-07-29T21:13:32;2.83;;;2.17;;
18711;SDS011;9485;49.386;8.674;2023-07-29T21:18:54;2.05;;;1.90;;
18711;SDS011;9485;49.386;8.674;2023-07-29T21:24:16;2.58;;;2.03;;
18711;SDS011;9485;49.386;8.674;2023-07-29T21:29:37;3.50;;;2.28;;
18711;SDS011;9485;49.386;8.674;2023-07-29T21:34:59;2.47;;;2.22;;
18711;SDS011;9485;49.386;8.674;2023-07-29T21:40:22;3.55;;;2.00;;
18711;SDS011;9485;49.386;8.674;2023-07-29T21:45:44;2.33;;;2.13;;
18711;SDS011;9485;49.386;8.674;2023-07-29T21:51:06;2.15;;;1.95;;
18711;SDS011;9485;49.386;8.674;2023-07-29T21:56:28;2.55;;;2.30;;
18711;SDS011;9485;49.386;8.674;2023-07-29T22:01:49;3.08;;;2.13;;
18711;SDS011;9485;49.386;8.674;2023-07-29T22:07:10;3.63;;;2.30;;
18711;SDS011;9485;49.386;8.674;2023-07-29T22:12:31;4.40;;;2.13;;
18711;SDS011;9485;49.386;8.674;2023-07-29T22:17:52;2.88;;;2.30;;
18711;SDS011;9485;49.386;8.674;2023-07-29T22:23:14;3.28;;;2.60;;
18711;SDS011;9485;49.386;8.674;2023-07-29T22:28:35;3.20;;;2.30;;
18711;SDS011;9485;49.386;8.674;2023-07-29T22:33:57;2.88;;;2.28;;
18711;SDS011;9485;49.386;8.674;2023-07-29T22:39:18;3.85;;;2.70;;
18711;SDS011;9485;49.386;8.674;2023-07-29T22:44:39;2.45;;;2.15;;
18711;SDS011;9485;49.386;8.674;2023-07-29T22:50:00;3.78;;;2.78;;
18711;SDS011;9485;49.386;8.674;2023-07-29T22:55:23;3.72;;;2.95;;
18711;SDS011;9485;49.386;8.674;2023-07-29T23:00:46;4.53;;;2.83;;
18711;SDS011;9485;49.386;8.674;2023-07-29T23:06:09;3.47;;;2.97;;
18711;SDS011;9485;49.386;8.674;2023-07-29T23:11:33;3.13;;;2.83;;
18711;SDS011;9485;49.386;8.674;2023-07-29T23:16:53;3.17;;;2.88;;
18711;SDS011;9485;49.386;8.674;2023-07-29T23:22:13;3.20;;;2.67;;
18711;SDS011;9485;49.386;8.674;2023-07-29T23:27:35;2.78;;;2.58;;
18711;SDS011;9485;49.386;8.674;2023-07-29T23:32:56;3.20;;;2.90;;
18711;SDS011;9485;49.386;8.674;2023-07-29T23:38:16;2.63;;;2.42;;
18711;SDS011;9485;49.386;8.674;2023-07-29T23:43:41;4.80;;;2.85;;
18711;SDS011;9485;49.386;8.674;2023-07-29T23:49:02;3.22;;;2.42;;
18711;SDS011;9485;49.386;8.674;2023-07-29T23:54:23;2.13;;;1.98;;
18711;SDS011;9485;49.386;8.674;2023-07-29T23:59:45;2.95;;;2.67;;
